Time;durP1;ratioP1;P1;durP2;ratioP2;P2;SDS_P1;SDS_P2;PMS_P1;PMS_P2;Temp;Humidity;BMP_temperature;BMP_pressure;BME280_temperature;BME280_humidity;BME280_pressure;Samples;Min_cycle;Max_cycle;Signal;HPM_P1;HPM_P2
2021/11/22 00:01:32;;;;;;;;;7.00;7.00;;;;;18.80;44.31;100845.19;5059577;28;57939;-77
2021/11/22 00:03:58;;;;;;;;;9.25;7.75;;;;;18.82;43.89;100845.16;5060153;28;45435;-77
2021/11/22 00:06:23;;;;;;;;;6.75;5.75;;;;;18.84;43.68;100848.63;5043678;28;45429;-76
2021/11/22 00:08:49;;;;;;;;;8.75;6.25;;;;;18.84;43.72;100862.72;5061419;28;45444;-77
2021/11/22 00:11:14;;;;;;;;;7.25;7.00;;;;;18.82;43.45;100853.09;5061177;28;46245;-77
2021/11/22 00:13:40;;;;;;;;;10.50;8.00;;;;;18.83;43.69;100854.81;5059628;28;60170;-77
2021/11/22 00:16:05;;;;;;;;;15.00;8.75;;;;;18.84;44.32;100857.41;5059751;28;45330;-77
2021/11/22 00:18:30;;;;;;;;;9.50;6.75;;;;;18.85;43.32;100858.28;5061341;28;45403;-77
2021/11/22 00:20:56;;;;;;;;;10.25;6.00;;;;;18.85;43.71;100856.53;5059200;28;56150;-76
2021/11/22 00:23:21;;;;;;;;;9.75;8.25;;;;;18.84;43.86;100859.19;5060264;28;70296;-77
2021/11/22 00:25:46;;;;;;;;;8.00;6.00;;;;;18.81;44.27;100860.16;5043100;28;45992;-77
2021/11/22 00:28:12;;;;;;;;;6.00;5.75;;;;;18.82;44.28;100859.25;5076461;28;56969;-76
2021/11/22 00:30:37;;;;;;;;;8.25;7.75;;;;;18.82;44.15;100851.31;5040754;28;65986;-77
2021/11/22 00:33:03;;;;;;;;;8.50;6.50;;;;;18.82;43.93;100864.53;5039658;28;45374;-77
2021/11/22 00:35:32;;;;;;;;;8.25;7.25;;;;;18.80;43.89;100865.47;5022784;28;45305;-77
2021/11/22 00:38:03;;;;;;;;;8.75;8.75;;;;;18.75;43.56;100857.63;5023752;28;45229;-77
2021/11/22 00:40:29;;;;;;;;;10.75;8.00;;;;;18.72;43.73;100864.78;5055569;28;46440;-76
2021/11/22 00:42:56;;;;;;;;;10.25;8.50;;;;;18.68;43.28;100861.34;5022895;28;45472;-77
2021/11/22 00:45:21;;;;;;;;;7.75;7.00;;;;;18.65;43.62;100869.31;5040689;28;45307;-76
2021/11/22 00:47:47;;;;;;;;;8.25;7.00;;;;;18.62;44.15;100867.59;5040783;28;45239;-76
2021/11/22 00:50:12;;;;;;;;;8.00;6.50;;;;;18.63;43.78;100882.53;5022413;28;47209;-77
2021/11/22 00:52:38;;;;;;;;;7.75;7.00;;;;;18.62;43.43;100874.66;5040705;28;45308;-77
2021/11/22 00:55:04;;;;;;;;;6.00;6.00;;;;;18.60;44.55;100881.75;5022211;28;55906;-77
2021/11/22 00:57:29;;;;;;;;;9.25;7.00;;;;;18.62;43.98;100886.09;5022813;28;45417;-76
2021/11/22 00:59:55;;;;;;;;;11.00;7.00;;;;;18.64;43.99;100884.28;5039084;28;46049;-77
2021/11/22 01:02:22;;;;;;;;;10.50;6.50;;;;;18.67;44.07;100895.72;5022547;28;45328;-76
2021/11/22 01:04:47;;;;;;;;;8.00;7.00;;;;;18.69;44.04;100892.16;5059938;28;45320;-76
2021/11/22 01:07:13;;;;;;;;;8.75;6.75;;;;;18.67;43.69;100896.59;5060566;28;45286;-76
2021/11/22 01:09:38;;;;;;;;;9.75;7.00;;;;;18.66;43.65;100896.63;5059058;28;46331;-76
2021/11/22 01:12:04;;;;;;;;;9.25;6.25;;;;;18.64;43.64;100901.91;5060426;28;45569;-76
2021/11/22 01:14:29;;;;;;;;;10.25;8.75;;;;;18.62;44.03;100901.97;5059179;28;45507;-77
2021/11/22 01:16:55;;;;;;;;;8.00;7.00;;;;;18.66;43.93;100907.19;5059928;28;61250;-76
2021/11/22 01:19:20;;;;;;;;;8.75;8.50;;;;;18.67;44.13;100895.72;5059263;28;67377;-76
2021/11/22 01:21:45;;;;;;;;;9.25;6.50;;;;;18.65;43.51;100916.91;5060392;28;45284;-76
2021/11/22 01:24:11;;;;;;;;;6.25;6.25;;;;;18.61;43.63;100909.94;5059685;28;60130;-76
2021/11/22 01:26:37;;;;;;;;;11.00;6.00;;;;;18.60;43.88;100919.63;5059796;28;57570;-77
2021/11/22 01:29:03;;;;;;;;;11.75;10.25;;;;;18.60;43.96;100919.63;5060037;28;47453;-76
2021/11/22 01:31:28;;;;;;;;;6.75;6.25;;;;;18.58;43.79;100909.97;5058904;28;45263;-76
2021/11/22 01:33:54;;;;;;;;;9.75;6.25;;;;;18.57;43.74;100924.09;5025334;28;45741;-77
2021/11/22 01:36:19;;;;;;;;;8.50;7.00;;;;;18.57;43.49;100921.44;5058264;28;62983;-77
2021/11/22 01:38:44;;;;;;;;;12.00;8.25;;;;;18.55;44.10;100916.19;5041660;28;50701;-76
2021/11/22 01:41:10;;;;;;;;;10.75;7.25;;;;;18.55;43.79;100925.91;5058801;28;46359;-77
2021/11/22 01:43:35;;;;;;;;;10.50;8.75;;;;;18.53;43.84;100922.44;5041157;28;64320;-77
2021/11/22 01:46:01;;;;;;;;;8.25;5.75;;;;;18.53;43.81;100928.59;5058864;28;45587;-77
2021/11/22 01:48:26;;;;;;;;;7.25;6.00;;;;;18.49;43.17;100920.75;5057762;28;69068;-76
2021/11/22 01:50:53;;;;;;;;;8.50;7.25;;;;;18.46;43.86;100921.69;5058678;28;45350;-77
2021/11/22 01:53:19;;;;;;;;;7.50;6.50;;;;;18.47;43.52;100930.47;5062500;28;45359;-77
2021/11/22 01:55:44;;;;;;;;;7.75;6.50;;;;;18.47;43.56;100933.13;5045373;28;45437;-77
2021/11/22 01:58:10;;;;;;;;;5.50;5.00;;;;;18.47;43.59;100934.00;5061734;28;57025;-76
2021/11/22 02:00:41;;;;;;;;;7.75;6.75;;;;;18.46;43.89;100926.09;5045452;28;45255;-76
2021/11/22 02:03:06;;;;;;;;;8.25;6.25;;;;;18.45;43.22;100940.22;5062246;28;45435;-76
2021/11/22 02:05:32;;;;;;;;;7.50;6.75;;;;;18.44;44.07;100941.13;5061925;28;45956;-76
2021/11/22 02:07:58;;;;;;;;;6.25;5.25;;;;;18.43;43.23;100942.03;5061929;28;48181;-76
2021/11/22 02:10:23;;;;;;;;;11.75;7.50;;;;;18.41;44.30;100946.44;5061216;28;69267;-77
2021/11/22 02:12:49;;;;;;;;;6.00;5.75;;;;;18.42;43.38;100950.81;5061064;28;45260;-76
2021/11/22 02:15:14;;;;;;;;;7.50;5.50;;;;;18.41;43.45;100949.09;5061745;28;45350;-76
2021/11/22 02:17:42;;;;;;;;;6.75;5.50;;;;;18.42;44.13;100953.47;5061612;28;45348;-76
2021/11/22 02:20:12;;;;;;;;;9.00;6.50;;;;;18.43;43.82;100958.75;5061792;28;45274;-76
2021/11/22 02:22:38;;;;;;;;;9.00;5.00;;;;;18.44;43.96;100954.34;5045091;28;45343;-76
2021/11/22 02:25:06;;;;;;;;;8.00;6.00;;;;;18.45;43.57;100956.94;5061114;28;66624;-76
2021/11/22 02:27:32;;;;;;;;;9.50;7.00;;;;;18.41;43.90;100959.66;5061735;28;46829;-76
2021/11/22 02:29:58;;;;;;;;;7.75;6.75;;;;;18.38;43.22;100957.97;5061900;28;45270;-76
2021/11/22 02:32:23;;;;;;;;;8.00;7.00;;;;;18.33;43.45;100958.06;5061642;28;45248;-76
2021/11/22 02:34:48;;;;;;;;;8.50;8.50;;;;;18.33;44.10;100967.72;5044671;28;46213;-76
2021/11/22 02:37:14;;;;;;;;;7.75;5.50;;;;;18.32;43.38;100966.84;5043855;28;70335;-76
2021/11/22 02:39:39;;;;;;;;;7.50;7.00;;;;;18.31;44.06;100958.97;5044892;28;45454;-76
2021/11/22 02:42:13;;;;;;;;;8.25;6.50;;;;;18.31;44.01;100956.31;5044857;28;45452;-76
2021/11/22 02:44:39;;;;;;;;;8.50;7.25;;;;;18.32;44.59;100958.94;5061517;28;45185;-76
2021/11/22 02:47:04;;;;;;;;;9.75;7.50;;;;;18.33;43.40;100963.34;5044477;28;47930;-76
2021/11/22 02:49:32;;;;;;;;;6.00;5.50;;;;;18.33;42.94;100955.41;5044090;28;52924;-76
2021/11/22 02:51:58;;;;;;;;;7.50;6.00;;;;;18.31;43.67;100961.59;5061863;28;45383;-76
2021/11/22 02:54:23;;;;;;;;;10.00;7.50;;;;;18.34;43.70;100956.28;5040702;28;68108;-76
2021/11/22 02:56:49;;;;;;;;;6.75;6.00;;;;;18.37;43.45;100969.44;5060991;28;48931;-76
2021/11/22 02:59:14;;;;;;;;;8.00;6.25;;;;;18.39;43.47;100962.34;5043934;28;57815;-76
2021/11/22 03:01:41;;;;;;;;;14.00;8.75;;;;;18.39;43.27;100966.75;5061377;28;45307;-76
2021/11/22 03:04:07;;;;;;;;;9.25;5.25;;;;;18.40;42.99;100961.44;5061990;28;45454;-76
2021/11/22 03:06:32;;;;;;;;;7.50;6.50;;;;;18.39;44.00;100967.63;5062033;28;60433;-76
2021/11/22 03:08:57;;;;;;;;;7.50;6.25;;;;;18.40;42.77;100966.72;5060668;28;57922;-76
2021/11/22 03:11:23;;;;;;;;;8.75;6.75;;;;;18.38;43.72;100970.31;5061143;28;45169;-76
2021/11/22 03:13:48;;;;;;;;;7.75;5.75;;;;;18.38;43.48;100979.09;5060411;28;63621;-75
2021/11/22 03:16:14;;;;;;;;;8.50;6.75;;;;;18.37;43.49;100974.72;5043546;28;54001;-76
2021/11/22 03:18:39;;;;;;;;;6.25;5.50;;;;;18.35;43.06;100980.03;5044090;28;45280;-76
2021/11/22 03:21:05;;;;;;;;;8.50;7.50;;;;;18.33;43.28;100978.31;5061107;28;45436;-76
2021/11/22 03:23:30;;;;;;;;;10.75;6.75;;;;;18.32;42.58;100982.72;5060812;28;48010;-76
2021/11/22 03:25:56;;;;;;;;;9.75;7.25;;;;;18.28;42.80;100996.03;5061987;28;49442;-76
2021/11/22 03:28:22;;;;;;;;;6.00;5.00;;;;;18.27;43.50;100991.66;5061426;28;64607;-76
2021/11/22 03:30:48;;;;;;;;;6.25;6.25;;;;;18.27;43.58;100981.94;5061177;28;45496;-76
2021/11/22 03:33:13;;;;;;;;;9.25;8.00;;;;;18.29;43.00;100987.19;5043834;28;45478;-77
2021/11/22 03:35:40;;;;;;;;;7.25;7.25;;;;;18.27;43.88;101000.44;5060423;28;45485;-76
2021/11/22 03:38:07;;;;;;;;;6.00;6.00;;;;;18.28;42.76;100990.75;5060958;28;45243;-76
2021/11/22 03:40:32;;;;;;;;;5.00;5.00;;;;;18.27;43.58;100995.16;5044202;28;45265;-76
2021/11/22 03:45:26;;;;;;;;;9.00;6.00;;;;;18.23;43.16;100995.22;5044265;28;45448;-76
2021/11/22 03:47:51;;;;;;;;;11.00;8.00;;;;;18.21;42.59;100999.69;5060437;28;45481;-76
2021/11/22 03:50:16;;;;;;;;;7.00;7.00;;;;;18.18;42.88;100999.75;5059977;28;58057;-76
2021/11/22 03:52:42;;;;;;;;;9.50;7.50;;;;;18.18;42.76;101010.31;5043859;28;45453;-76
2021/11/22 03:55:07;;;;;;;;;8.25;6.25;;;;;18.20;43.16;101011.16;5043771;28;47031;-76
2021/11/22 03:57:33;;;;;;;;;9.25;6.75;;;;;18.18;42.59;101012.94;5046692;28;45371;-76
2021/11/22 03:59:58;;;;;;;;;7.50;6.50;;;;;18.21;43.54;101023.44;5059611;28;65934;-76
2021/11/22 04:02:24;;;;;;;;;8.25;8.00;;;;;18.22;43.20;101018.13;5059711;28;61248;-76
2021/11/22 04:04:49;;;;;;;;;8.00;8.00;;;;;18.22;42.59;101019.91;5043058;28;48249;-76
2021/11/22 04:07:14;;;;;;;;;7.50;7.50;;;;;18.21;43.34;101031.38;5059567;28;66755;-76
2021/11/22 04:09:40;;;;;;;;;8.75;6.25;;;;;18.21;43.12;101026.09;5059640;28;60008;-76
2021/11/22 04:12:06;;;;;;;;;8.25;6.00;;;;;18.20;43.74;101040.19;5052170;28;66233;-76
2021/11/22 04:14:31;;;;;;;;;9.50;8.00;;;;;18.18;43.05;101036.72;5059056;28;48024;-77
2021/11/22 04:16:56;;;;;;;;;9.50;9.00;;;;;18.16;42.73;101049.97;5043133;28;50001;-77
2021/11/22 04:19:22;;;;;;;;;9.50;8.00;;;;;18.12;43.46;101042.97;5059705;28;45194;-77
2021/11/22 04:21:47;;;;;;;;;8.25;8.00;;;;;18.14;43.02;101045.59;5059729;28;52137;-76
2021/11/22 04:24:13;;;;;;;;;9.25;7.00;;;;;18.17;43.93;101053.47;5059008;28;68004;-77
2021/11/22 04:26:38;;;;;;;;;7.00;7.00;;;;;18.22;43.66;101054.25;5061153;28;45299;-77
2021/11/22 04:29:03;;;;;;;;;10.00;6.50;;;;;18.24;43.69;101047.16;5059982;28;45248;-76
2021/11/22 04:31:29;;;;;;;;;9.50;8.00;;;;;18.26;43.29;101056.84;5025714;28;68020;-76
2021/11/22 04:33:54;;;;;;;;;9.00;9.00;;;;;18.27;43.55;101053.28;5059908;28;69268;-76
2021/11/22 04:36:20;;;;;;;;;8.00;7.00;;;;;18.27;43.01;101057.69;5060380;28;60618;-76
2021/11/22 04:38:45;;;;;;;;;8.00;7.00;;;;;18.26;43.40;101066.53;5061082;28;45497;-77
2021/11/22 04:41:10;;;;;;;;;9.50;7.75;;;;;18.24;43.03;101063.00;5061002;28;45326;-76
2021/11/22 04:43:36;;;;;;;;;9.00;8.00;;;;;18.22;43.07;101070.97;5059493;28;46457;-76
2021/11/22 04:46:01;;;;;;;;;7.75;7.75;;;;;18.23;44.01;101077.13;5064095;28;59063;-76
2021/11/22 04:48:27;;;;;;;;;7.75;6.00;;;;;18.25;44.23;101080.63;5037028;28;60283;-76
2021/11/22 04:50:52;;;;;;;;;11.50;8.00;;;;;18.26;43.32;101080.59;5051271;28;45513;-76
2021/11/22 04:53:17;;;;;;;;;9.25;6.00;;;;;18.29;43.51;101074.38;5059928;28;45407;-76
2021/11/22 04:55:43;;;;;;;;;9.25;6.75;;;;;18.29;42.97;101085.81;5042919;28;45439;-76
2021/11/22 04:58:08;;;;;;;;;7.00;6.00;;;;;18.27;43.50;101079.72;5026067;28;45340;-76
2021/11/22 05:00:35;;;;;;;;;10.25;7.00;;;;;18.25;43.26;101084.16;5042316;28;60771;-76
2021/11/22 05:03:00;;;;;;;;;8.75;8.25;;;;;18.22;42.66;101084.19;5059057;28;46379;-76
2021/11/22 05:05:26;;;;;;;;;7.25;7.00;;;;;18.19;42.96;101080.72;5042720;28;45255;-74
2021/11/22 05:07:51;;;;;;;;;9.50;8.75;;;;;18.19;43.15;101086.88;5042230;28;47437;-75
2021/11/22 05:10:18;;;;;;;;;9.50;6.50;;;;;18.21;43.49;101090.38;5042396;28;45477;-74
2021/11/22 05:12:43;;;;;;;;;11.75;8.25;;;;;18.22;43.29;101086.81;5074191;28;45290;-75
2021/11/22 05:15:09;;;;;;;;;11.50;10.00;;;;;18.24;43.02;101094.72;5041880;28;59507;-75
2021/11/22 05:17:34;;;;;;;;;7.75;7.50;;;;;18.22;43.64;101099.16;5059127;28;45806;-76
2021/11/22 05:20:00;;;;;;;;;8.75;7.50;;;;;18.26;43.43;101100.88;5059266;28;45313;-74
2021/11/22 05:22:26;;;;;;;;;11.00;9.50;;;;;18.26;42.88;101109.66;5059021;28;45370;-75
2021/11/22 05:24:51;;;;;;;;;8.00;7.25;;;;;18.23;43.54;101114.97;5041961;28;53973;-75
2021/11/22 05:27:18;;;;;;;;;7.50;7.50;;;;;18.24;43.26;101115.84;5059168;28;45336;-74
2021/11/22 05:29:43;;;;;;;;;8.25;8.00;;;;;18.21;42.69;101118.56;5060477;28;45425;-75
2021/11/22 05:32:09;;;;;;;;;14.25;10.25;;;;;18.20;42.78;101111.53;5041903;28;47246;-75
2021/11/22 05:34:34;;;;;;;;;10.25;7.50;;;;;18.22;42.97;101130.88;5041434;28;63710;-75
2021/11/22 05:37:00;;;;;;;;;9.50;5.75;;;;;18.22;43.15;101117.66;5058918;28;45462;-75
2021/11/22 05:39:25;;;;;;;;;10.50;8.25;;;;;18.22;42.51;101122.94;5059099;28;45267;-75
2021/11/22 05:41:52;;;;;;;;;8.75;7.75;;;;;18.19;42.65;101133.56;5058663;28;45754;-75
2021/11/22 05:44:27;;;;;;;;;8.25;7.50;;;;;18.13;43.03;101142.44;5042235;28;45297;-75
2021/11/22 05:46:53;;;;;;;;;12.75;9.50;;;;;18.10;42.75;101144.28;5058751;28;45215;-76
2021/11/22 05:49:18;;;;;;;;;7.50;7.50;;;;;18.12;43.62;101146.00;5041744;28;46102;-75
2021/11/22 05:51:45;;;;;;;;;10.00;7.00;;;;;18.17;43.56;101146.81;5041718;28;47259;-76
2021/11/22 05:54:11;;;;;;;;;11.00;7.75;;;;;18.23;44.01;101146.69;5046700;28;45390;-76
2021/11/22 05:56:37;;;;;;;;;11.25;10.25;;;;;18.27;43.88;101137.84;5039753;28;45512;-76
2021/11/22 05:59:02;;;;;;;;;10.50;7.75;;;;;18.32;43.89;101143.03;5038667;28;45355;-76
2021/11/22 06:01:28;;;;;;;;;11.00;9.50;;;;;18.35;43.65;101140.34;5038111;28;45453;-77
2021/11/22 06:03:53;;;;;;;;;12.00;7.50;;;;;18.38;43.92;101156.16;5051112;28;59915;-77
2021/11/22 06:06:19;;;;;;;;;9.50;8.25;;;;;18.43;44.36;101154.31;5041846;28;45767;-77
2021/11/22 06:08:44;;;;;;;;;7.50;5.50;;;;;18.49;44.67;101151.56;5059568;28;45356;-76
2021/11/22 06:11:09;;;;;;;;;9.50;9.00;;;;;18.51;43.67;101149.78;5057848;28;55369;-78
2021/11/22 06:13:35;;;;;;;;;10.75;9.25;;;;;18.51;44.15;101156.84;5025198;28;45242;-77
2021/11/22 06:16:00;;;;;;;;;9.75;9.75;;;;;18.57;46.02;101159.34;5059905;28;51772;-86
2021/11/22 06:18:26;;;;;;;;;9.75;7.50;;;;;18.73;47.29;101175.88;5058133;28;47289;-76
2021/11/22 06:20:51;;;;;;;;;7.50;6.25;;;;;18.91;48.13;101172.88;5058293;28;45454;-76
2021/11/22 06:23:17;;;;;;;;;7.25;6.75;;;;;19.13;47.96;101174.25;5058587;28;45359;-77
2021/11/22 06:25:43;;;;;;;;;9.75;8.25;;;;;19.35;48.76;101187.91;5058468;28;45194;-74
2021/11/22 06:28:08;;;;;;;;;12.00;9.00;;;;;19.56;48.03;101207.84;5075325;28;45326;-75
2021/11/22 06:30:35;;;;;;;;;9.50;6.75;;;;;19.73;47.88;101192.47;5058326;28;45253;-73
2021/11/22 06:33:00;;;;;;;;;9.25;8.00;;;;;19.92;47.83;101202.69;5058080;28;45332;-75
2021/11/22 06:35:28;;;;;;;;;9.50;7.25;;;;;20.07;47.63;101207.63;5041613;28;45753;-76
2021/11/22 06:37:54;;;;;;;;;6.75;6.75;;;;;20.17;47.21;101214.47;5043509;28;45518;-73
2021/11/22 06:40:20;;;;;;;;;9.75;7.00;;;;;20.27;46.95;101221.31;5062735;28;45300;-73
2021/11/22 06:42:45;;;;;;;;;10.25;9.25;;;;;20.35;46.68;101231.72;5061765;28;45194;-74
2021/11/22 06:45:11;;;;;;;;;8.50;6.00;;;;;20.41;46.07;101241.28;5061580;28;45213;-74
2021/11/22 06:47:36;;;;;;;;;12.25;8.50;;;;;20.44;46.32;101234.19;5061492;28;45536;-76
2021/11/22 06:50:02;;;;;;;;;6.25;5.25;;;;;20.51;46.94;101237.56;5044380;28;45922;-73
2021/11/22 06:52:28;;;;;;;;;10.50;9.50;;;;;20.53;46.71;101236.63;5061585;28;45276;-73
2021/11/22 06:54:55;;;;;;;;;12.00;8.75;;;;;20.56;46.56;101236.53;5061537;28;45255;-73
2021/11/22 06:57:21;;;;;;;;;8.50;6.25;;;;;20.58;46.40;101234.72;5061346;28;45436;-73
2021/11/22 06:59:47;;;;;;;;;13.00;11.75;;;;;20.59;46.07;101243.56;5062358;28;46472;-72
2021/11/22 07:02:14;;;;;;;;;12.50;11.25;;;;;20.62;45.99;101247.94;5062676;28;45359;-73
2021/11/22 07:04:40;;;;;;;;;8.50;8.25;;;;;20.63;46.08;101253.19;5074748;28;45399;-71
2021/11/22 07:07:05;;;;;;;;;8.50;7.25;;;;;20.64;46.14;101254.06;5078272;28;45339;-72
2021/11/22 07:09:36;;;;;;;;;14.25;9.00;;;;;20.65;45.21;101255.78;5043671;28;46694;-73
2021/11/22 07:12:03;;;;;;;;;9.00;8.75;;;;;20.66;45.20;101249.56;5053191;28;46147;-72
2021/11/22 07:14:28;;;;;;;;;10.00;9.00;;;;;20.65;45.10;101254.00;5044109;28;45318;-72
2021/11/22 07:16:54;;;;;;;;;9.50;9.00;;;;;20.67;45.43;101252.19;5060023;28;45402;-74
2021/11/22 07:19:20;;;;;;;;;14.00;9.75;;;;;20.68;45.38;101259.25;5059779;28;58241;-71
2021/11/22 07:21:45;;;;;;;;;9.00;8.25;;;;;20.69;45.07;101261.00;5050285;28;45290;-68
2021/11/22 07:24:11;;;;;;;;;8.25;6.50;;;;;20.71;44.90;101267.13;5027327;28;45486;-72
2021/11/22 07:26:36;;;;;;;;;8.50;8.00;;;;;20.71;45.02;101272.44;5060639;28;45465;-72
2021/11/22 07:29:03;;;;;;;;;8.75;7.25;;;;;20.70;45.12;101268.06;5062099;28;48478;-71
2021/11/22 07:31:29;;;;;;;;;10.00;8.00;;;;;20.70;44.84;101281.31;5044001;28;45931;-72
2021/11/22 07:33:54;;;;;;;;;10.00;8.75;;;;;20.69;44.45;101292.84;5060380;28;45247;-71
2021/11/22 07:36:20;;;;;;;;;7.50;7.25;;;;;20.68;44.33;101290.22;5060214;28;53531;-70
2021/11/22 07:38:45;;;;;;;;;12.00;10.50;;;;;20.69;44.37;101298.13;5060311;28;46148;-71
2021/11/22 07:41:11;;;;;;;;;8.50;8.00;;;;;20.69;44.32;101306.09;5061267;28;45311;-71
2021/11/22 07:43:36;;;;;;;;;10.50;7.25;;;;;20.69;44.22;101311.41;5061805;28;45780;-71
2021/11/22 07:46:01;;;;;;;;;7.75;7.50;;;;;20.70;44.29;101315.78;5043269;28;58693;-72
2021/11/22 07:48:27;;;;;;;;;10.75;9.00;;;;;20.69;44.50;101321.13;5042808;28;47293;-72
2021/11/22 07:50:53;;;;;;;;;13.50;9.00;;;;;20.69;44.45;101322.00;5059615;28;45302;-71
2021/11/22 07:53:18;;;;;;;;;11.00;8.50;;;;;20.71;44.08;101333.44;5059958;28;46519;-72
2021/11/22 07:55:51;;;;;;;;;9.00;8.00;;;;;20.70;44.42;101336.16;5061059;28;45358;-70
2021/11/22 07:58:17;;;;;;;;;10.50;8.25;;;;;20.71;44.16;101340.53;5043163;28;47260;-72
2021/11/22 08:00:42;;;;;;;;;8.75;8.25;;;;;20.71;44.44;101343.19;5059901;28;45358;-72
2021/11/22 08:03:25;;;;;;;;;15.00;10.50;;;;;20.69;44.49;101339.72;5059761;28;45485;-71
2021/11/22 08:05:55;;;;;;;;;9.25;8.25;;;;;20.72;44.44;101344.94;5042882;28;45549;-72
2021/11/22 08:08:22;;;;;;;;;9.00;7.25;;;;;20.71;44.13;101343.19;5027905;28;46736;-72
2021/11/22 08:10:53;;;;;;;;;10.00;8.25;;;;;20.71;44.04;101346.72;5026017;28;45271;-72
2021/11/22 08:13:19;;;;;;;;;9.00;8.25;;;;;20.72;44.40;101345.81;5059749;28;45370;-71
2021/11/22 08:15:44;;;;;;;;;12.25;7.75;;;;;20.73;44.00;101344.03;5025707;28;45519;-71
2021/11/22 08:18:11;;;;;;;;;10.75;8.50;;;;;20.72;44.05;101351.09;5059157;28;46004;-71
2021/11/22 08:20:39;;;;;;;;;9.75;8.75;;;;;20.73;43.88;101346.66;5058867;28;45251;-72
2021/11/22 08:23:04;;;;;;;;;9.50;7.50;;;;;20.72;44.08;101348.44;5059594;28;45322;-71
2021/11/22 08:25:32;;;;;;;;;11.25;8.25;;;;;20.74;44.07;101351.06;5059805;28;45421;-71
2021/11/22 08:28:00;;;;;;;;;9.00;8.75;;;;;20.74;43.90;101359.03;5060829;28;47548;-72
2021/11/22 08:30:26;;;;;;;;;10.50;6.75;;;;;20.74;44.07;101353.72;5043748;28;45261;-72
2021/11/22 08:32:53;;;;;;;;;10.00;7.25;;;;;20.74;43.98;101354.59;5042644;28;45430;-71
2021/11/22 08:35:19;;;;;;;;;10.00;7.00;;;;;20.74;43.89;101359.03;5059323;28;45185;-70
2021/11/22 08:37:45;;;;;;;;;10.50;9.75;;;;;20.75;43.82;101363.41;5026182;28;47936;-71
2021/11/22 08:40:12;;;;;;;;;9.75;8.50;;;;;20.75;43.83;101371.38;5059684;28;45274;-71
2021/11/22 08:42:37;;;;;;;;;8.25;8.25;;;;;20.74;43.85;101370.50;5059561;28;45296;-72
2021/11/22 08:45:04;;;;;;;;;8.25;7.00;;;;;20.75;43.88;101366.94;5059282;28;45524;-73
2021/11/22 08:47:29;;;;;;;;;10.00;8.25;;;;;20.74;43.79;101370.50;5059351;28;46297;-73
2021/11/22 08:49:55;;;;;;;;;12.50;10.50;;;;;20.75;43.59;101376.69;5059147;28;45309;-74
2021/11/22 08:52:21;;;;;;;;;12.50;8.50;;;;;20.74;44.02;101375.81;5059233;28;45553;-73
2021/11/22 08:54:46;;;;;;;;;11.00;8.25;;;;;20.76;43.99;101375.78;5059322;28;45321;-73
2021/11/22 08:57:11;;;;;;;;;7.25;7.25;;;;;20.77;43.83;101378.41;5059096;28;45341;-73
2021/11/22 08:59:37;;;;;;;;;10.00;9.00;;;;;20.77;43.66;101375.75;5059118;28;45620;-73
2021/11/22 09:02:03;;;;;;;;;8.75;8.25;;;;;20.78;43.82;101382.81;5042303;28;45331;-73
2021/11/22 09:04:28;;;;;;;;;11.00;9.25;;;;;20.78;43.66;101390.78;5058526;28;45452;-73
2021/11/22 09:06:59;;;;;;;;;11.00;8.00;;;;;20.79;43.61;101394.28;5042393;28;47718;-73
2021/11/22 09:09:36;;;;;;;;;5.00;3.75;;;;;20.78;43.53;101393.41;5025739;28;45410;-73
2021/11/22 09:12:04;;;;;;;;;7.00;7.00;;;;;20.80;43.60;101393.38;5035715;28;45267;-73
2021/11/22 09:14:30;;;;;;;;;9.00;7.00;;;;;20.78;43.38;101385.47;5059788;28;45229;-73
2021/11/22 09:16:55;;;;;;;;;6.75;6.50;;;;;20.78;43.87;101398.72;5038828;28;47015;-74
2021/11/22 09:19:21;;;;;;;;;9.00;9.00;;;;;20.79;43.37;101404.91;5058553;28;45398;-74
2021/11/22 09:21:46;;;;;;;;;11.00;8.00;;;;;20.80;43.57;101401.34;5042171;28;45372;-73
2021/11/22 09:24:12;;;;;;;;;7.25;6.25;;;;;20.82;43.47;101403.03;5041785;28;45337;-73
2021/11/22 09:26:37;;;;;;;;;10.00;8.00;;;;;20.84;43.07;101406.53;5058777;28;46095;-74
2021/11/22 09:29:03;;;;;;;;;7.50;7.50;;;;;20.85;43.41;101415.38;5058483;28;45333;-74
2021/11/22 09:31:28;;;;;;;;;8.25;7.00;;;;;20.82;43.48;101411.00;5058786;28;45371;-73
2021/11/22 09:33:54;;;;;;;;;7.25;6.25;;;;;20.86;43.21;101423.31;5058260;28;45390;-73
2021/11/22 09:36:20;;;;;;;;;6.00;6.00;;;;;20.87;43.30;101424.19;5058863;28;46189;-73
2021/11/22 09:38:45;;;;;;;;;8.00;8.00;;;;;20.86;43.47;101425.97;5060021;28;45416;-73
2021/11/22 09:41:11;;;;;;;;;9.25;8.25;;;;;20.88;43.37;101417.97;5041651;28;48894;-73
2021/11/22 09:43:36;;;;;;;;;9.00;8.00;;;;;20.87;43.00;101432.13;5059668;28;45233;-72
2021/11/22 09:46:02;;;;;;;;;6.25;6.25;;;;;20.86;43.45;101433.91;5058545;28;45250;-72
2021/11/22 09:48:30;;;;;;;;;8.75;7.25;;;;;20.88;43.07;101431.22;5059627;28;45445;-73
2021/11/22 09:50:56;;;;;;;;;8.00;5.25;;;;;20.87;43.53;101430.34;5042480;28;45549;-74
2021/11/22 09:53:21;;;;;;;;;6.50;6.50;;;;;20.89;43.40;101439.16;5041674;28;45375;-74
2021/11/22 09:55:47;;;;;;;;;7.00;7.00;;;;;20.88;43.24;101452.44;5059431;28;45451;-73
2021/11/22 09:58:15;;;;;;;;;8.25;7.75;;;;;20.89;43.35;101462.16;5059534;28;45435;-74
2021/11/22 10:00:46;;;;;;;;;7.25;6.00;;;;;20.87;43.05;101454.25;5058854;28;45448;-72
2021/11/22 10:03:15;;;;;;;;;8.25;7.00;;;;;20.88;43.39;101463.94;5057756;28;45363;-72
2021/11/22 10:05:44;;;;;;;;;12.25;8.00;;;;;20.89;43.13;101465.69;5059350;28;45526;-73
2021/11/22 10:08:12;;;;;;;;;7.00;5.50;;;;;20.89;43.45;101457.72;5028675;28;45440;-73
2021/11/22 10:10:43;;;;;;;;;6.00;6.00;;;;;20.90;42.91;101455.94;5059524;28;45357;-74
2021/11/22 10:13:28;;;;;;;;;6.75;6.50;;;;;20.92;43.07;101471.81;5035197;28;45280;-74
2021/11/22 10:16:17;;;;;;;;;7.25;6.00;;;;;20.91;43.17;101473.59;5041783;28;47911;-74
2021/11/22 10:18:43;;;;;;;;;7.50;6.00;;;;;20.91;43.13;101472.72;5062732;28;45349;-74
2021/11/22 10:21:10;;;;;;;;;6.50;6.50;;;;;20.91;43.11;101470.09;5044967;28;45353;-74
2021/11/22 10:23:43;;;;;;;;;9.25;6.00;;;;;20.91;43.15;101467.44;5061709;28;45507;-73
2021/11/22 10:26:11;;;;;;;;;6.00;6.00;;;;;20.92;43.17;101474.47;5061578;28;46173;-73
2021/11/22 10:28:47;;;;;;;;;9.75;6.00;;;;;20.94;42.91;101472.66;5062872;28;45406;-75
2021/11/22 10:31:24;;;;;;;;;6.50;5.75;;;;;20.93;42.92;101478.88;5061642;28;45282;-75
2021/11/22 10:33:50;;;;;;;;;6.25;4.25;;;;;20.93;43.00;101482.41;5062663;28;45216;-75
2021/11/22 10:36:17;;;;;;;;;8.00;6.50;;;;;20.93;43.05;101477.09;5061168;28;46481;-76
2021/11/22 10:38:44;;;;;;;;;6.50;6.50;;;;;20.93;42.90;101476.22;5061479;28;45401;-75
2021/11/22 10:41:15;;;;;;;;;7.00;5.00;;;;;20.92;42.54;101480.66;5061532;28;45401;-75
2021/11/22 10:43:51;;;;;;;;;7.50;4.50;;;;;20.92;42.54;101480.66;5044624;28;45794;-73
2021/11/22 10:47:00;;;;;;;;;5.50;4.75;;;;;20.93;42.76;101490.34;5044936;28;47850;-75
2021/11/22 10:49:39;;;;;;;;;6.75;6.50;;;;;20.93;42.64;101486.84;5065748;27;45342;-73
2021/11/22 10:52:25;;;;;;;;;6.25;5.25;;;;;20.93;42.34;101484.19;5061336;28;45263;-74
2021/11/22 10:54:55;;;;;;;;;6.00;6.00;;;;;20.94;42.30;101493.88;5046115;28;45940;-74
2021/11/22 10:57:20;;;;;;;;;5.00;3.50;;;;;20.92;42.35;101490.41;5061248;28;45502;-73
2021/11/22 10:59:45;;;;;;;;;6.00;6.00;;;;;20.91;42.49;101478.91;5046510;28;59480;-73
2021/11/22 11:02:11;;;;;;;;;7.00;5.50;;;;;20.92;42.44;101485.09;5063159;28;45240;-71
2021/11/22 11:04:41;;;;;;;;;6.75;6.75;;;;;20.94;42.32;101504.50;5068204;28;45252;-71
2021/11/22 11:07:07;;;;;;;;;6.00;5.50;;;;;20.92;42.32;101491.28;5062848;28;47616;-72
2021/11/22 11:09:40;;;;;;;;;9.00;8.00;;;;;20.94;42.25;101499.19;5047623;28;45415;-73
2021/11/22 11:12:16;;;;;;;;;8.00;7.00;;;;;20.93;42.16;101489.50;5037402;28;45287;-73
2021/11/22 11:14:49;;;;;;;;;8.50;5.25;;;;;20.93;42.46;101492.13;5043945;28;45540;-74
2021/11/22 11:17:22;;;;;;;;;8.75;7.50;;;;;20.94;42.67;101496.53;5044527;28;46417;-73
2021/11/22 11:19:50;;;;;;;;;7.00;7.00;;;;;20.94;42.46;101489.47;5060893;28;45274;-73
2021/11/22 11:22:15;;;;;;;;;6.00;5.00;;;;;20.94;42.74;101494.78;5060918;28;45443;-72